Weather reports worldwide

Advertisment
Viso Del Marques, Spain (8345): temperature & dewpoint: 10.09.2019 05:00:00 - 16.09.2019 05:00:00 (CEST)Viso Del Marques, Spain (8345): wind speed & gusts: 10.09.2019 05:00:00 - 16.09.2019 05:00:00 (CEST)Viso Del Marques, Spain (8345): wind direction: 10.09.2019 05:00:00 - 16.09.2019 05:00:00 (CEST)Viso Del Marques, Spain (8345): precipitation: 10.09.2019 05:00:00 - 16.09.2019 05:00:00 (CEST)
Date & Time tt [°C] td [°C] ff [km/h] ff [kn] fx [km/h] fx [kn] dd rr [mm]
16.09.2019 05:00:00 - - - - - - - -
16.09.2019 04:00:00 14,5 6,4 1 1 5 3 WNW 0,0
16.09.2019 03:00:00 14,5 6,8 1 1 6 3 SW 0,0
16.09.2019 02:00:00 15,4 6,9 1 1 5 3 W -
16.09.2019 01:00:00 15,9 7,4 0 0 9 5 NNW 0,0
16.09.2019 00:00:00 16,6 6,7 5 3 7 4 SE 0,0
15.09.2019 23:00:00 16,8 6,9 3 1 5 3 SSW 0,0
15.09.2019 22:00:00 17,6 5,9 1 1 11 6 WSW 0,0
15.09.2019 21:00:00 18,2 4,8 7 4 14 7 NW 0,0
15.09.2019 20:00:00 20,8 4,4 9 5 26 14 WSW -
15.09.2019 19:00:00 21,6 4,2 9 5 20 11 NW 0,0
15.09.2019 18:00:00 21,8 4,0 9 5 19 10 WNW 0,0
15.09.2019 17:00:00 21,6 4,2 7 4 19 10 WNW 0,0
15.09.2019 16:00:00 22,3 3,9 6 4 14 8 W 0,0
15.09.2019 15:00:00 21,2 5,2 4 2 13 7 NNW 0,0
15.09.2019 14:00:00 20,0 5,7 4 2 12 6 WNW -
15.09.2019 13:00:00 19,5 6,6 4 2 9 5 E 0,0
15.09.2019 12:00:00 17,5 7,6 2 1 11 6 ESE 0,0
15.09.2019 11:00:00 14,9 8,2 3 2 7 4 ESE 0,0
15.09.2019 10:00:00 13,5 6,8 3 2 11 6 NNW 0,0
15.09.2019 09:00:00 13,5 6,8 6 3 15 8 NNW 0,0
15.09.2019 08:00:00 13,0 6,4 5 3 14 7 WSW -
15.09.2019 07:00:00 13,8 7,1 1 1 12 7 SW 0,0
15.09.2019 06:00:00 14,3 5,9 5 3 11 6 E 0,0
15.09.2019 05:00:00 14,3 6,4 3 2 23 12 NW 0,0
15.09.2019 04:00:00 14,4 5,8 17 9 23 12 SSE 0,0
15.09.2019 03:00:00 13,3 6,2 5 3 12 7 NE 0,0
15.09.2019 02:00:00 14,1 6,9 9 5 11 6 ESE -
15.09.2019 01:00:00 13,7 6,8 5 3 6 3 SSE 0,0
15.09.2019 00:00:00 13,7 6,3 2 1 7 4 W 0,0
14.09.2019 23:00:00 13,9 6,3 4 2 6 4 WSW 0,0
14.09.2019 22:00:00 14,5 6,6 5 3 12 7 WSW 0,0
14.09.2019 21:00:00 14,7 6,5 11 6 16 8 WSW 0,0
14.09.2019 20:00:00 16,5 6,4 9 5 18 10 W -
14.09.2019 19:00:00 17,9 6,1 10 5 19 11 W 0,1
14.09.2019 18:00:00 18,1 6,3 8 5 19 11 NNW 0,0
14.09.2019 17:00:00 16,6 5,0 11 6 31 17 N 0,0
14.09.2019 16:00:00 15,5 4,6 18 10 31 17 NE 0,0
14.09.2019 15:00:00 13,8 3,9 15 8 32 18 NE 0,9
14.09.2019 14:00:00 11,9 5,3 13 7 23 13 N -
14.09.2019 13:00:00 11,9 5,3 15 8 37 20 NE 15,2
14.09.2019 12:00:00 12,9 5,8 8 4 16 9 NNE 0,8
14.09.2019 11:00:00 13,5 6,6 1 1 8 5 SE 0,8
14.09.2019 10:00:00 11,8 5,2 9 5 21 11 E 1,3
14.09.2019 09:00:00 11,9 5,1 8 5 16 9 E 3,5
14.09.2019 08:00:00 12,3 3,8 7 4 12 6 E -
14.09.2019 07:00:00 13,5 4,4 1 1 14 8 ENE 0,0
14.09.2019 06:00:00 12,9 3,3 8 5 14 8 ENE 0,0
14.09.2019 05:00:00 13,2 3,6 8 4 14 8 E 0,4
14.09.2019 04:00:00 13,0 3,4 8 4 21 11 ENE 0,0
14.09.2019 03:00:00 13,7 3,5 16 8 32 17 SE 0,0
14.09.2019 02:00:00 13,3 3,9 9 5 20 11 ENE -
14.09.2019 01:00:00 12,9 3,8 5 3 14 8 E 0,0
14.09.2019 00:00:00 12,4 5,1 5 3 9 5 ENE 0,0
13.09.2019 23:00:00 12,1 5,1 3 1 6 3 S 0,0
13.09.2019 22:00:00 13,0 5,4 1 0 6 3 NNE 0,0
13.09.2019 21:00:00 12,5 4,7 4 2 9 5 WSW 0,0
13.09.2019 20:00:00 13,3 3,7 5 3 12 6 NNW -
13.09.2019 19:00:00 13,0 3,7 7 4 18 10 ENE 0,0
13.09.2019 18:00:00 11,5 3,1 10 5 53 28 ENE 5,4
13.09.2019 17:00:00 15,2 4,3 19 11 38 21 ENE 0,9
13.09.2019 16:00:00 17,7 2,9 18 10 33 18 ENE 0,0
13.09.2019 15:00:00 16,7 4,4 16 9 28 15 NE 0,0
13.09.2019 14:00:00 13,8 4,7 14 8 34 18 NNE -
13.09.2019 13:00:00 12,4 4,1 16 9 31 17 NNE 0,0
13.09.2019 12:00:00 10,2 3,5 11 6 18 10 N 0,1
13.09.2019 11:00:00 10,1 3,4 10 5 18 10 NNE 3,2
13.09.2019 10:00:00 10,5 3,3 9 5 21 11 NNE 3,0
13.09.2019 09:00:00 10,4 3,9 12 6 18 10 NNE 4,1
13.09.2019 08:00:00 11,5 4,9 5 3 16 9 ESE -
13.09.2019 07:00:00 11,0 4,5 10 5 17 9 NE 0,1
13.09.2019 06:00:00 10,9 4,6 9 5 24 13 ENE 0,9
13.09.2019 05:00:00 11,0 4,7 16 9 29 15 ESE 0,8
13.09.2019 04:00:00 11,7 4,0 15 8 27 14 ESE 0,4
13.09.2019 03:00:00 11,8 4,1 11 6 18 10 NNE 0,1
13.09.2019 02:00:00 12,2 4,9 4 2 12 6 N -
13.09.2019 01:00:00 12,1 4,4 5 3 13 7 NNE 1,0
13.09.2019 00:00:00 12,9 3,8 8 5 18 10 E 0,7
12.09.2019 23:00:00 14,2 4,2 11 6 33 18 E 0,0
12.09.2019 22:00:00 13,9 3,4 16 9 27 15 NNE 0,1
12.09.2019 21:00:00 14,4 4,4 11 6 33 18 NE 0,0
12.09.2019 20:00:00 14,4 4,7 22 12 43 23 NE -
12.09.2019 19:00:00 15,1 5,9 23 12 39 21 NE 0,1
12.09.2019 18:00:00 14,6 7,7 14 8 40 22 NE 0,6
12.09.2019 17:00:00 13,5 6,4 8 4 28 15 NE 0,4
12.09.2019 16:00:00 13,5 5,7 10 5 31 17 NE 0,3
12.09.2019 15:00:00 13,7 6,1 18 10 40 22 NE 0,5
12.09.2019 14:00:00 14,4 5,0 17 9 40 21 NE -
12.09.2019 13:00:00 14,1 4,4 19 10 43 23 ENE 0,0
12.09.2019 12:00:00 14,5 3,6 24 13 46 25 NE 0,0
12.09.2019 11:00:00 13,7 4,0 25 14 49 26 NE 0,0
12.09.2019 10:00:00 13,7 3,8 26 14 47 26 NE 0,0
12.09.2019 09:00:00 12,5 3,5 20 11 37 20 NNE 0,0
12.09.2019 08:00:00 10,8 1,4 19 10 35 19 NNE -
12.09.2019 07:00:00 10,6 0,6 22 12 36 19 NNE 0,0
12.09.2019 06:00:00 10,4 2,0 11 6 22 12 N 0,0
12.09.2019 05:00:00 10,4 0,7 4 2 21 11 N 0,0
12.09.2019 04:00:00 10,0 0,1 16 9 24 13 N 0,0
12.09.2019 03:00:00 10,3 -0,2 9 5 31 17 ENE 0,0
12.09.2019 02:00:00 10,4 -0,4 16 9 28 15 NE -
12.09.2019 01:00:00 10,6 -0,8 10 6 27 15 NE 0,0
12.09.2019 00:00:00 11,2 -0,9 16 8 24 13 NE 0,0
11.09.2019 23:00:00 11,6 -1,5 13 7 33 18 NE 0,0
11.09.2019 22:00:00 12,9 -1,4 18 10 39 21 NE 0,0
11.09.2019 21:00:00 14,1 -0,7 17 9 40 21 NE 0,0
11.09.2019 20:00:00 15,2 -0,9 23 13 44 24 NE -
11.09.2019 19:00:00 17,4 -1,2 24 13 42 23 NNE 0,0
11.09.2019 18:00:00 17,9 -0,8 23 12 45 24 NNE 0,0
11.09.2019 17:00:00 19,0 -0,4 21 11 36 20 NE 0,0
11.09.2019 16:00:00 18,0 -1,2 17 9 41 22 NNE 0,0
11.09.2019 15:00:00 16,9 -1,7 23 12 44 24 N 0,0
11.09.2019 14:00:00 16,8 -1,3 21 12 49 27 NNE -
11.09.2019 13:00:00 15,7 -1,3 23 13 47 25 NNE 0,0
11.09.2019 12:00:00 14,3 -1,3 29 16 51 28 N 0,0
11.09.2019 11:00:00 11,9 -2,7 32 17 50 27 N 0,0
11.09.2019 10:00:00 11,5 -2,6 27 15 47 25 N 0,0
11.09.2019 09:00:00 10,5 -3,2 24 13 37 20 N 0,0
11.09.2019 08:00:00 9,2 -3,7 21 12 41 22 N -
11.09.2019 07:00:00 9,4 -3,8 19 11 42 23 N 0,0
11.09.2019 06:00:00 9,2 -4,0 21 12 42 23 N 0,0
11.09.2019 05:00:00 9,4 -3,8 21 11 35 19 N 0,0
11.09.2019 04:00:00 9,4 -3,5 13 7 24 13 NNW 0,0
11.09.2019 03:00:00 9,7 -3,5 13 7 32 17 NNW 0,0
11.09.2019 02:00:00 10,0 -3,6 19 10 33 18 N -
11.09.2019 01:00:00 10,4 -3,3 15 8 24 13 N 0,0
11.09.2019 00:00:00 10,6 -2,4 20 11 36 19 N 0,0
10.09.2019 23:00:00 11,8 -3,1 17 9 47 25 N 0,0
10.09.2019 22:00:00 12,9 -5,6 27 15 46 25 NNE 0,0
10.09.2019 21:00:00 14,3 -6,5 31 17 49 27 N 0,0
10.09.2019 20:00:00 16,0 -6,2 22 12 41 22 NNW -
10.09.2019 19:00:00 17,0 -6,1 24 13 45 24 NNW 0,0
10.09.2019 18:00:00 18,1 -6,5 17 9 39 21 NNW 0,0
10.09.2019 17:00:00 17,7 -6,8 22 12 42 23 N 0,0
10.09.2019 16:00:00 18,0 -5,9 17 9 40 22 NNW 0,0
10.09.2019 15:00:00 17,6 -4,9 19 11 39 21 NW 0,0
10.09.2019 14:00:00 16,6 -4,0 19 10 36 19 NNW -
10.09.2019 13:00:00 15,5 -2,0 14 8 32 18 N 0,0
10.09.2019 12:00:00 14,8 -0,9 16 9 32 18 N 0,0
10.09.2019 11:00:00 - - - - - - - -
10.09.2019 10:00:00 - - - - - - - -
10.09.2019 09:00:00 - - - - - - - -
10.09.2019 08:00:00 - - - - - - - -
10.09.2019 07:00:00 - - - - - - - -
10.09.2019 06:00:00 - - - - - - - -
10.09.2019 05:00:00 - - - - - - - -

tt = temperature
td = dewpoint
ff = wind speed
fx = gusts
dd = wind direction
rr = precipitation

Next stations